createdAt,value
2019-01-29T00:02:26.565Z,12.80
2019-01-29T00:05:02.958Z,12.90
2019-01-29T00:07:39.592Z,12.90
2019-01-29T00:10:16.654Z,12.80
2019-01-29T00:12:53.878Z,12.80
2019-01-29T00:15:34.367Z,12.80
2019-01-29T00:18:12.968Z,12.80
2019-01-29T00:20:50.358Z,12.80
2019-01-29T00:23:27.619Z,12.70
2019-01-29T00:26:05.315Z,12.70
2019-01-29T00:28:42.299Z,12.70
2019-01-29T00:31:21.969Z,12.80
2019-01-29T00:34:01.833Z,12.70
2019-01-29T00:36:39.439Z,12.70
2019-01-29T00:39:16.465Z,13.00
2019-01-29T00:41:53.655Z,13.00
2019-01-29T00:44:31.207Z,13.10
2019-01-29T00:47:08.951Z,13.00
2019-01-29T00:49:46.307Z,13.00
2019-01-29T00:52:24.463Z,13.00
2019-01-29T00:55:02.619Z,13.00
2019-01-29T00:57:39.577Z,13.00
2019-01-29T01:00:22.934Z,12.90
2019-01-29T01:03:00.275Z,12.90
2019-01-29T01:05:40.171Z,13.00
2019-01-29T01:08:18.211Z,13.00
2019-01-29T01:10:55.684Z,13.20
2019-01-29T01:13:33.052Z,13.30
2019-01-29T01:16:11.197Z,13.20
2019-01-29T01:18:48.123Z,13.30
2019-01-29T01:21:26.855Z,13.40
2019-01-29T01:24:04.064Z,13.30
2019-01-29T01:26:41.326Z,13.20
2019-01-29T01:29:18.788Z,13.10
2019-01-29T01:31:55.898Z,13.20
2019-01-29T01:34:37.453Z,13.40
2019-01-29T01:37:16.587Z,13.30
2019-01-29T01:39:54.042Z,13.40
2019-01-29T01:42:31.621Z,13.40
2019-01-29T01:45:12.164Z,13.30
2019-01-29T01:47:53.162Z,13.20
2019-01-29T01:50:33.203Z,13.10
2019-01-29T01:57:12.449Z,13.10
2019-01-29T02:00:23.981Z,13.00
2019-01-29T02:10:59.135Z,13.20
2019-01-29T02:14:28.058Z,13.20
2019-01-29T02:17:16.506Z,13.30
2019-01-29T02:27:03.114Z,13.30
2019-01-29T02:33:30.317Z,13.30
2019-01-29T02:36:19.944Z,13.30
2019-01-29T02:42:47.122Z,13.40
2019-01-29T02:55:58.438Z,13.40
2019-01-29T03:10:11.060Z,13.50
2019-01-29T03:12:59.704Z,13.40
2019-01-29T03:19:38.736Z,13.40
2019-01-29T03:29:34.256Z,13.50
2019-01-29T03:36:47.977Z,13.50
2019-01-29T03:40:27.512Z,13.60
2019-01-29T03:47:35.281Z,13.40
2019-01-29T03:50:29.111Z,13.40
2019-01-29T03:53:45.850Z,13.40
2019-01-29T03:56:25.633Z,13.40
2019-01-29T03:59:04.109Z,13.50
2019-01-29T04:01:42.531Z,13.70
2019-01-29T04:04:23.894Z,13.80
2019-01-29T04:07:02.042Z,13.90
2019-01-29T04:09:42.720Z,13.90
2019-01-29T04:12:22.818Z,14.00
2019-01-29T04:15:01.655Z,13.90
2019-01-29T04:17:42.725Z,13.80
2019-01-29T04:20:24.613Z,13.90
2019-01-29T04:23:06.308Z,13.80
2019-01-29T04:25:44.655Z,13.80
2019-01-29T04:28:29.924Z,13.70
2019-01-29T04:31:06.832Z,13.60
2019-01-29T04:33:44.470Z,13.70
2019-01-29T04:36:40.400Z,13.80
2019-01-29T04:39:28.329Z,13.90
2019-01-29T04:42:10.140Z,13.80
2019-01-29T04:44:48.530Z,13.80
2019-01-29T04:47:29.171Z,13.80
2019-01-29T04:50:07.141Z,13.80
2019-01-29T04:52:48.776Z,13.90
2019-01-29T04:55:31.201Z,13.90
2019-01-29T04:58:13.338Z,13.90
2019-01-29T05:00:57.018Z,14.00
2019-01-29T05:03:41.663Z,14.10
2019-01-29T05:06:22.744Z,14.10
2019-01-29T05:09:03.369Z,14.20
2019-01-29T05:11:43.765Z,14.20
2019-01-29T05:14:23.024Z,14.20
2019-01-29T05:17:05.724Z,14.10
2019-01-29T05:19:43.833Z,14.10
2019-01-29T05:22:23.539Z,14.20
2019-01-29T05:25:14.529Z,14.30
2019-01-29T05:27:57.825Z,14.30
2019-01-29T05:30:36.112Z,14.20
2019-01-29T05:33:15.185Z,14.10
2019-01-29T05:35:58.949Z,14.00
2019-01-29T05:38:40.517Z,14.00
2019-01-29T05:41:21.732Z,14.10
2019-01-29T05:44:00.088Z,14.10
2019-01-29T05:46:44.014Z,14.00
2019-01-29T05:49:23.682Z,13.90
2019-01-29T05:52:14.966Z,13.90
2019-01-29T05:54:55.631Z,14.10
2019-01-29T05:57:39.855Z,14.10
2019-01-29T06:00:25.722Z,14.10
2019-01-29T06:03:21.743Z,14.10
2019-01-29T06:06:04.315Z,14.10
2019-01-29T06:08:47.910Z,14.20
2019-01-29T06:11:42.480Z,14.20
2019-01-29T06:14:19.863Z,14.20
2019-01-29T06:17:07.007Z,14.30
2019-01-29T06:19:51.651Z,14.40
2019-01-29T06:22:35.065Z,14.40
2019-01-29T06:25:18.911Z,14.40
2019-01-29T06:27:59.168Z,14.30
2019-01-29T06:30:40.114Z,14.40
2019-01-29T06:33:18.769Z,14.30
2019-01-29T06:36:01.694Z,14.30
2019-01-29T06:38:56.551Z,14.40
2019-01-29T06:41:39.176Z,14.40
2019-01-29T06:44:25.090Z,14.40
2019-01-29T06:47:04.389Z,14.30
2019-01-29T06:49:45.175Z,14.40
2019-01-29T06:52:27.014Z,14.40
2019-01-29T06:55:10.817Z,14.30
2019-01-29T06:57:55.608Z,14.30
2019-01-29T07:00:34.076Z,14.40
2019-01-29T07:03:20.485Z,14.50
2019-01-29T07:06:07.891Z,14.40
2019-01-29T07:08:47.546Z,14.50
2019-01-29T07:11:30.785Z,14.40
2019-01-29T07:14:09.952Z,14.40
2019-01-29T07:16:58.430Z,14.40
2019-01-29T07:19:42.879Z,14.30
2019-01-29T07:22:22.649Z,14.50
2019-01-29T07:25:00.508Z,14.40
2019-01-29T07:27:44.295Z,14.30
2019-01-29T07:30:25.247Z,14.30
2019-01-29T07:33:11.517Z,14.40
2019-01-29T07:35:55.960Z,14.40
2019-01-29T07:38:39.300Z,14.40
2019-01-29T07:41:32.629Z,14.40
2019-01-29T07:44:22.351Z,14.40
2019-01-29T07:47:03.140Z,14.30
2019-01-29T07:49:44.394Z,14.40
2019-01-29T07:52:24.181Z,14.40
2019-01-29T07:55:03.543Z,14.50
2019-01-29T07:57:50.708Z,14.50
2019-01-29T08:00:35.008Z,14.40
2019-01-29T08:03:17.705Z,14.40
2019-01-29T08:05:59.071Z,14.50
2019-01-29T08:08:38.934Z,14.40
2019-01-29T08:11:19.709Z,14.50
2019-01-29T08:14:00.998Z,14.50
2019-01-29T08:16:41.184Z,14.40
2019-01-29T08:19:33.214Z,14.40
2019-01-29T08:22:14.990Z,14.40
2019-01-29T08:25:01.220Z,14.50
2019-01-29T08:27:50.561Z,14.50
2019-01-29T08:30:33.048Z,14.50
2019-01-29T08:33:15.361Z,14.40
2019-01-29T08:35:52.915Z,14.50
2019-01-29T08:38:30.530Z,14.50
2019-01-29T08:41:09.853Z,14.50
2019-01-29T08:43:50.789Z,14.60
2019-01-29T08:46:32.312Z,14.60
2019-01-29T08:49:15.320Z,14.60
2019-01-29T08:52:03.944Z,14.50
2019-01-29T08:54:46.432Z,14.50
2019-01-29T08:57:25.443Z,14.50
2019-01-29T09:00:06.306Z,14.50
2019-01-29T09:02:43.813Z,14.60
2019-01-29T09:05:25.816Z,14.50
2019-01-29T09:08:03.592Z,14.50
2019-01-29T09:10:41.321Z,14.30
2019-01-29T09:13:19.942Z,14.20
2019-01-29T09:16:00.632Z,14.30
2019-01-29T09:18:42.284Z,14.20
2019-01-29T09:21:23.703Z,14.20
2019-01-29T09:24:19.548Z,14.20
2019-01-29T09:26:57.449Z,14.10
2019-01-29T09:29:36.347Z,14.10
2019-01-29T09:32:16.705Z,14.10
2019-01-29T09:34:54.215Z,14.10
2019-01-29T09:37:34.961Z,14.10
2019-01-29T09:40:20.545Z,14.20
2019-01-29T09:43:04.524Z,14.10
2019-01-29T09:45:45.491Z,14.20
2019-01-29T09:48:26.390Z,14.20
2019-01-29T09:51:04.174Z,14.10
2019-01-29T09:53:44.928Z,14.10
2019-01-29T09:56:23.971Z,14.10
2019-01-29T09:59:04.219Z,14.10
2019-01-29T10:01:42.622Z,14.20
2019-01-29T10:04:20.235Z,14.10
2019-01-29T10:07:17.618Z,14.00
2019-01-29T10:09:57.748Z,14.00
2019-01-29T10:12:34.792Z,14.00
2019-01-29T10:15:16.899Z,14.00
2019-01-29T10:17:57.966Z,14.00
2019-01-29T10:20:37.857Z,13.90
2019-01-29T10:23:16.938Z,14.00
2019-01-29T10:26:14.674Z,14.00
2019-01-29T10:28:55.504Z,13.90
2019-01-29T10:31:36.309Z,13.90
2019-01-29T10:34:16.105Z,13.90
2019-01-29T10:36:53.922Z,13.90
2019-01-29T10:39:33.259Z,13.90
2019-01-29T10:42:10.374Z,14.00
2019-01-29T10:44:50.420Z,14.00
2019-01-29T10:47:28.815Z,14.10
2019-01-29T10:50:07.156Z,13.90
2019-01-29T10:52:52.644Z,14.00
2019-01-29T10:55:31.741Z,13.90
2019-01-29T10:58:13.200Z,13.80
2019-01-29T11:00:53.942Z,13.80
2019-01-29T11:03:35.488Z,13.90
2019-01-29T11:06:12.964Z,13.90
2019-01-29T11:08:52.994Z,13.80
2019-01-29T11:11:34.461Z,13.80
2019-01-29T11:14:13.153Z,13.80
2019-01-29T11:16:53.583Z,13.80
2019-01-29T11:19:35.148Z,13.80
2019-01-29T11:22:27.113Z,13.80
2019-01-29T11:25:11.152Z,13.80
2019-01-29T11:27:49.873Z,13.80
2019-01-29T11:30:29.661Z,13.80
2019-01-29T11:33:13.719Z,13.80
2019-01-29T11:36:03.036Z,13.80
2019-01-29T11:38:43.352Z,13.80
2019-01-29T11:41:43.207Z,13.80
2019-01-29T11:44:22.936Z,13.80
2019-01-29T11:47:06.567Z,13.80
2019-01-29T11:49:46.769Z,13.80
2019-01-29T11:52:26.189Z,13.80
2019-01-29T11:55:13.739Z,13.80
2019-01-29T11:58:00.703Z,13.80
2019-01-29T12:00:58.642Z,13.80
2019-01-29T12:03:52.061Z,13.80
2019-01-29T12:06:38.700Z,13.80
2019-01-29T12:09:25.265Z,13.80
2019-01-29T12:12:17.072Z,13.80
2019-01-29T12:14:56.800Z,13.80
2019-01-29T12:17:43.622Z,13.80
2019-01-29T12:20:46.594Z,13.80
2019-01-29T12:24:05.576Z,13.80
2019-01-29T12:27:02.164Z,13.80
2019-01-29T12:29:42.863Z,13.80
2019-01-29T12:32:25.910Z,13.80
2019-01-29T12:35:06.630Z,13.80
2019-01-29T12:38:07.901Z,13.70
2019-01-29T12:40:53.504Z,13.70
2019-01-29T12:43:37.105Z,13.70
2019-01-29T12:46:32.872Z,13.70
2019-01-29T12:49:18.884Z,13.80
2019-01-29T12:52:23.170Z,13.80
2019-01-29T12:55:02.758Z,13.80
2019-01-29T12:57:55.872Z,13.70
2019-01-29T13:01:01.953Z,13.70
2019-01-29T13:03:47.874Z,13.70
2019-01-29T13:06:31.910Z,13.70
2019-01-29T13:09:16.851Z,13.70
2019-01-29T13:12:22.242Z,13.70
2019-01-29T13:15:23.357Z,13.70
2019-01-29T13:18:20.054Z,13.70
2019-01-29T13:21:22.358Z,13.70
2019-01-29T13:24:09.600Z,13.70
2019-01-29T13:26:57.636Z,13.70
2019-01-29T13:29:44.777Z,13.70
2019-01-29T13:32:41.282Z,13.70
2019-01-29T13:35:28.402Z,13.80
2019-01-29T13:38:19.949Z,13.80
2019-01-29T13:41:21.659Z,13.80
2019-01-29T13:44:31.524Z,13.80
2019-01-29T13:47:32.008Z,13.80
2019-01-29T13:50:41.402Z,13.80
2019-01-29T13:56:54.482Z,13.80
2019-01-29T14:02:52.004Z,13.70
2019-01-29T14:05:44.898Z,13.60
2019-01-29T14:08:49.552Z,13.70
2019-01-29T14:11:34.229Z,13.70
2019-01-29T14:14:36.391Z,13.60
2019-01-29T14:17:40.491Z,13.70
2019-01-29T14:20:42.523Z,13.70
2019-01-29T14:24:02.601Z,13.80
2019-01-29T14:34:04.595Z,13.80
2019-01-29T14:37:33.175Z,13.80
2019-01-29T14:40:45.985Z,13.70
2019-01-29T14:43:54.451Z,13.70
2019-01-29T14:46:50.948Z,13.70
2019-01-29T14:49:38.725Z,13.70
2019-01-29T14:52:40.062Z,13.70
2019-01-29T14:55:39.125Z,13.70
2019-01-29T14:58:38.393Z,13.80
2019-01-29T15:01:51.066Z,13.70
2019-01-29T15:04:48.836Z,13.70
2019-01-29T15:07:44.977Z,13.70
2019-01-29T15:10:40.297Z,13.60
2019-01-29T15:13:39.886Z,13.60
2019-01-29T15:16:43.338Z,13.60
2019-01-29T15:20:02.718Z,13.60
2019-01-29T15:23:27.052Z,13.60
2019-01-29T15:26:32.196Z,13.60
2019-01-29T15:29:17.511Z,13.60
2019-01-29T15:32:03.460Z,13.60
2019-01-29T15:34:48.762Z,13.50
2019-01-29T15:38:08.197Z,13.50
2019-01-29T15:41:01.890Z,13.60
2019-01-29T15:43:55.040Z,13.50
2019-01-29T15:46:57.831Z,13.50
2019-01-29T15:53:34.454Z,13.50
2019-01-29T15:56:52.174Z,13.50
2019-01-29T15:59:46.266Z,13.50
2019-01-29T16:03:02.924Z,13.40
2019-01-29T16:06:20.584Z,13.40
2019-01-29T16:09:15.091Z,13.40
2019-01-29T16:12:08.175Z,13.50
2019-01-29T16:14:53.505Z,13.40
2019-01-29T16:17:34.154Z,13.40
2019-01-29T16:20:45.057Z,13.40
2019-01-29T16:23:45.511Z,13.40
2019-01-29T16:26:47.416Z,13.40
2019-01-29T16:29:32.520Z,13.40
2019-01-29T16:32:17.685Z,13.40
2019-01-29T16:35:06.475Z,13.40
2019-01-29T16:37:47.691Z,13.40
2019-01-29T16:41:00.121Z,13.40
2019-01-29T16:43:40.668Z,13.40
2019-01-29T16:46:28.297Z,13.40
2019-01-29T16:49:15.975Z,13.40
2019-01-29T16:52:01.588Z,13.40
2019-01-29T16:55:04.781Z,13.30
2019-01-29T16:57:42.969Z,13.30
2019-01-29T17:00:40.668Z,13.30
2019-01-29T17:03:21.314Z,13.30
2019-01-29T17:06:17.514Z,13.30
2019-01-29T17:08:59.375Z,13.30
2019-01-29T17:11:38.018Z,13.30
2019-01-29T17:14:15.263Z,13.30
2019-01-29T17:16:58.033Z,13.30
2019-01-29T17:19:43.982Z,13.40
2019-01-29T17:22:26.627Z,13.30
2019-01-29T17:25:11.610Z,13.30
2019-01-29T17:27:56.026Z,13.30
2019-01-29T17:30:39.383Z,13.30
2019-01-29T17:33:21.118Z,13.30
2019-01-29T17:36:03.384Z,13.40
2019-01-29T17:38:44.734Z,13.30
2019-01-29T17:41:22.841Z,13.30
2019-01-29T17:44:04.798Z,13.30
2019-01-29T17:46:44.397Z,13.20
2019-01-29T17:49:22.572Z,13.20
2019-01-29T17:52:00.706Z,13.20
2019-01-29T17:54:41.375Z,13.20
2019-01-29T17:57:18.642Z,13.20
2019-01-29T17:59:58.247Z,13.20
2019-01-29T18:02:37.797Z,13.20
2019-01-29T18:05:19.893Z,13.20
2019-01-29T18:08:00.564Z,13.20
2019-01-29T18:10:40.425Z,13.20
2019-01-29T18:13:18.522Z,13.20
2019-01-29T18:15:57.419Z,13.10
2019-01-29T18:18:36.957Z,13.10
2019-01-29T18:21:15.486Z,13.10
2019-01-29T18:23:55.206Z,13.10
2019-01-29T18:26:34.241Z,13.10
2019-01-29T18:29:13.820Z,13.10
2019-01-29T18:31:52.817Z,13.10
2019-01-29T18:34:31.736Z,13.10
2019-01-29T18:37:09.452Z,13.00
2019-01-29T18:39:53.418Z,13.00
2019-01-29T18:42:31.317Z,13.10
2019-01-29T18:45:10.617Z,13.10
2019-01-29T18:47:48.555Z,13.10
2019-01-29T18:50:27.935Z,13.10
2019-01-29T18:53:07.607Z,13.10
2019-01-29T18:55:48.561Z,13.10
2019-01-29T18:58:26.461Z,13.10
2019-01-29T19:01:04.914Z,13.00
2019-01-29T19:03:43.142Z,13.10
2019-01-29T19:06:22.895Z,13.00
2019-01-29T19:09:01.735Z,13.00
2019-01-29T19:11:45.663Z,13.00
2019-01-29T19:14:24.292Z,13.00
2019-01-29T19:17:01.935Z,12.90
2019-01-29T19:19:42.827Z,12.90
2019-01-29T19:22:22.775Z,12.90
2019-01-29T19:25:02.525Z,13.00
2019-01-29T19:27:40.523Z,12.90
2019-01-29T19:30:27.106Z,13.00
2019-01-29T19:33:04.370Z,13.00
2019-01-29T19:35:42.153Z,13.00
2019-01-29T19:38:20.311Z,13.00
2019-01-29T19:41:01.946Z,13.10
2019-01-29T19:43:41.818Z,13.00
2019-01-29T19:46:20.654Z,13.00
2019-01-29T19:48:58.553Z,13.00
2019-01-29T19:51:37.992Z,13.00
2019-01-29T19:54:16.429Z,13.00
2019-01-29T19:56:54.676Z,12.90
2019-01-29T19:59:32.057Z,12.90
2019-01-29T20:02:10.071Z,12.90
2019-01-29T20:04:48.066Z,12.90
2019-01-29T20:07:26.423Z,12.90
2019-01-29T20:10:06.923Z,12.90
2019-01-29T20:12:45.677Z,12.90
2019-01-29T20:15:24.112Z,12.90
2019-01-29T20:18:03.298Z,12.90
2019-01-29T20:20:42.984Z,12.90
2019-01-29T20:23:21.483Z,12.90
2019-01-29T20:25:59.194Z,12.90
2019-01-29T20:28:42.245Z,12.90
2019-01-29T20:31:16.483Z,12.90
2019-01-29T20:33:54.673Z,12.90
2019-01-29T20:36:32.351Z,12.90
2019-01-29T20:39:12.457Z,12.90
2019-01-29T20:41:51.871Z,12.80
2019-01-29T20:44:32.154Z,12.80
2019-01-29T20:47:10.064Z,12.80
2019-01-29T20:49:47.791Z,12.80
2019-01-29T20:52:27.225Z,12.80
2019-01-29T20:55:04.862Z,12.80
2019-01-29T20:57:42.402Z,12.80
2019-01-29T21:00:23.273Z,12.80
2019-01-29T21:03:01.414Z,12.80
2019-01-29T21:05:39.113Z,12.80
2019-01-29T21:08:16.967Z,12.70
2019-01-29T21:10:56.502Z,12.70
2019-01-29T21:13:34.379Z,12.70
2019-01-29T21:16:12.094Z,12.80
2019-01-29T21:18:52.367Z,12.80
2019-01-29T21:21:30.500Z,12.80
2019-01-29T21:24:09.111Z,12.80
2019-01-29T21:26:48.740Z,12.80
2019-01-29T21:29:28.378Z,12.70
2019-01-29T21:32:08.602Z,12.70
2019-01-29T21:34:46.771Z,12.70
2019-01-29T21:37:24.317Z,12.70
2019-01-29T21:40:02.762Z,12.70
2019-01-29T21:42:42.284Z,12.70
2019-01-29T21:45:20.728Z,12.70
2019-01-29T21:47:58.993Z,12.70
2019-01-29T21:50:38.326Z,12.70
2019-01-29T21:53:16.466Z,12.60
2019-01-29T21:55:56.318Z,12.60
2019-01-29T21:58:34.142Z,12.60
2019-01-29T22:01:11.987Z,12.60
2019-01-29T22:03:51.450Z,12.60
2019-01-29T22:06:29.967Z,12.60
2019-01-29T22:09:09.115Z,12.60
2019-01-29T22:11:46.997Z,12.60
2019-01-29T22:14:24.909Z,12.60
2019-01-29T22:17:03.368Z,12.60
2019-01-29T22:19:41.622Z,12.60
2019-01-29T22:22:20.914Z,12.60
2019-01-29T22:24:58.972Z,12.50
2019-01-29T22:27:38.726Z,12.60
2019-01-29T22:30:30.143Z,12.60
2019-01-29T22:33:09.666Z,12.60
2019-01-29T22:35:47.514Z,12.60
2019-01-29T22:38:25.558Z,12.50
2019-01-29T22:41:07.660Z,12.60
2019-01-29T22:43:46.603Z,12.60
2019-01-29T22:46:25.094Z,12.60
2019-01-29T22:49:03.153Z,12.50
2019-01-29T22:51:41.040Z,12.60
2019-01-29T22:54:18.782Z,12.60
2019-01-29T22:56:56.024Z,12.60
2019-01-29T22:59:33.756Z,12.60
2019-01-29T23:02:12.645Z,12.60
2019-01-29T23:04:52.953Z,12.60
2019-01-29T23:07:42.721Z,12.60
2019-01-29T23:10:22.452Z,12.70
2019-01-29T23:13:06.380Z,12.60
2019-01-29T23:15:47.671Z,12.60
2019-01-29T23:18:25.861Z,12.60
2019-01-29T23:21:03.737Z,12.60
2019-01-29T23:23:41.317Z,12.70
2019-01-29T23:26:20.671Z,12.80
2019-01-29T23:28:58.744Z,12.70
2019-01-29T23:31:36.312Z,12.60
2019-01-29T23:34:17.617Z,12.60
2019-01-29T23:36:55.811Z,12.70
2019-01-29T23:39:36.247Z,12.70
2019-01-29T23:42:14.083Z,12.60
2019-01-29T23:44:51.696Z,12.80
2019-01-29T23:47:29.774Z,12.90
2019-01-29T23:50:10.431Z,12.80
2019-01-29T23:52:53.209Z,12.90
2019-01-29T23:55:31.004Z,12.80
2019-01-29T23:58:09.909Z,12.90
